Kinder, Missouri
Current Conditions -  °F | °C
As of 5:53 PM on Saturday 22 Nov 2014 (Local Time) from KPOF Reporting Station
Overcast Overcast  
Wind Chill: 57°   Ceiling: 4600
Heat Index: 57°   Visibility: 10mi
Dew Point: 46°   Wind: 3mph
Humidity: 67%   Direction: 220°SW
Pressure: 30.02"   Gusts: NA
Location:  36.9506°N, 90.1582°W
Report Text: KPOF 222353Z AUTO 22003KT 10SM OVC046 14/08 A3002 RMK AO2 SLP167 60001 T01390078 10178 20139 55005
Loading
Personal Weather Stations






























Interactive Weather Map New forecast layout! Learn more

10-Day Weather Forecast

Advertisements
Track Severe Weather on mobile